sensor_id;sensor_type;location;lat;lon;timestamp;pressure;altitude;pressure_sealevel;temperature;humidity
68075;BME280;54864;52.002;5.468;2023-02-16T00:00:29;102269.81;;;5.18;75.52
68075;BME280;54864;52.002;5.468;2023-02-16T00:01:33;102270.69;;;5.13;75.50
68075;BME280;54864;52.002;5.468;2023-02-16T00:02:35;102273.31;;;5.05;76.21
68075;BME280;54864;52.002;5.468;2023-02-16T00:03:36;102265.47;;;5.06;76.29
68075;BME280;54864;52.002;5.468;2023-02-16T00:04:38;102271.56;;;5.05;76.11
68075;BME280;54864;52.002;5.468;2023-02-16T00:05:39;102267.22;;;5.01;76.34
68075;BME280;54864;52.002;5.468;2023-02-16T00:06:40;102273.31;;;5.03;76.16
68075;BME280;54864;52.002;5.468;2023-02-16T00:07:42;102268.06;;;5.02;76.32
68075;BME280;54864;52.002;5.468;2023-02-16T00:08:46;102268.09;;;5.03;75.70
68075;BME280;54864;52.002;5.468;2023-02-16T00:09:48;102272.44;;;5.03;76.15
68075;BME280;54864;52.002;5.468;2023-02-16T00:10:49;102270.69;;;5.02;76.03
68075;BME280;54864;52.002;5.468;2023-02-16T00:12:15;102268.06;;;4.93;75.89
68075;BME280;54864;52.002;5.468;2023-02-16T00:13:37;102274.19;;;4.99;75.99
68075;BME280;54864;52.002;5.468;2023-02-16T00:14:44;102268.06;;;4.93;75.98
68075;BME280;54864;52.002;5.468;2023-02-16T00:15:46;102268.06;;;4.88;76.20
68075;BME280;54864;52.002;5.468;2023-02-16T00:16:47;102258.50;;;4.92;76.55
68075;BME280;54864;52.002;5.468;2023-02-16T00:17:49;102260.22;;;4.93;76.38
68075;BME280;54864;52.002;5.468;2023-02-16T00:18:50;102261.97;;;4.94;76.10
68075;BME280;54864;52.002;5.468;2023-02-16T00:19:52;102263.72;;;4.98;76.49
68075;BME280;54864;52.002;5.468;2023-02-16T00:20:54;102257.63;;;4.88;76.48
68075;BME280;54864;52.002;5.468;2023-02-16T00:21:56;102264.59;;;4.94;76.35
68075;BME280;54864;52.002;5.468;2023-02-16T00:22:58;102259.38;;;4.92;75.82
68075;BME280;54864;52.002;5.468;2023-02-16T00:24:00;102255.00;;;4.93;76.31
68075;BME280;54864;52.002;5.468;2023-02-16T00:25:02;102256.75;;;4.94;76.17
68075;BME280;54864;52.002;5.468;2023-02-16T00:26:04;102249.78;;;4.94;75.63
68075;BME280;54864;52.002;5.468;2023-02-16T00:27:11;102255.00;;;4.96;75.74
68075;BME280;54864;52.002;5.468;2023-02-16T00:28:15;102260.22;;;4.84;76.13
68075;BME280;54864;52.002;5.468;2023-02-16T00:29:21;102259.34;;;4.88;75.74
68075;BME280;54864;52.002;5.468;2023-02-16T00:30:24;102256.72;;;4.78;76.27
68075;BME280;54864;52.002;5.468;2023-02-16T00:31:27;102263.69;;;4.78;75.95
68075;BME280;54864;52.002;5.468;2023-02-16T00:32:32;102266.31;;;4.80;76.10
68075;BME280;54864;52.002;5.468;2023-02-16T00:33:32;102259.34;;;4.82;75.87
68075;BME280;54864;52.002;5.468;2023-02-16T00:34:35;102264.56;;;4.80;75.82
68075;BME280;54864;52.002;5.468;2023-02-16T00:35:36;102262.81;;;4.76;76.25
68075;BME280;54864;52.002;5.468;2023-02-16T00:36:38;102255.88;;;4.78;75.69
68075;BME280;54864;52.002;5.468;2023-02-16T00:37:39;102265.44;;;4.79;75.68
68075;BME280;54864;52.002;5.468;2023-02-16T00:38:40;102256.72;;;4.74;75.98
68075;BME280;54864;52.002;5.468;2023-02-16T00:39:43;102253.22;;;4.69;76.21
68075;BME280;54864;52.002;5.468;2023-02-16T00:40:46;102255.84;;;4.72;76.09
68075;BME280;54864;52.002;5.468;2023-02-16T00:41:47;102254.97;;;4.70;76.27
68075;BME280;54864;52.002;5.468;2023-02-16T00:42:51;102259.34;;;4.69;76.37
68075;BME280;54864;52.002;5.468;2023-02-16T00:43:53;102254.09;;;4.66;76.92
68075;BME280;54864;52.002;5.468;2023-02-16T00:44:55;102254.09;;;4.65;77.40
68075;BME280;54864;52.002;5.468;2023-02-16T00:46:00;102261.06;;;4.67;76.68
68075;BME280;54864;52.002;5.468;2023-02-16T00:47:03;102259.31;;;4.65;76.99
68075;BME280;54864;52.002;5.468;2023-02-16T00:48:10;102256.72;;;4.65;77.13
68075;BME280;54864;52.002;5.468;2023-02-16T00:49:12;102251.50;;;4.68;76.77
68075;BME280;54864;52.002;5.468;2023-02-16T00:50:16;102250.63;;;4.69;76.87
68075;BME280;54864;52.002;5.468;2023-02-16T00:51:17;102250.63;;;4.69;76.37
68075;BME280;54864;52.002;5.468;2023-02-16T00:52:26;102252.38;;;4.71;76.55
68075;BME280;54864;52.002;5.468;2023-02-16T00:53:29;102248.00;;;4.70;76.97
68075;BME280;54864;52.002;5.468;2023-02-16T00:54:31;102252.38;;;4.68;76.97
68075;BME280;54864;52.002;5.468;2023-02-16T00:55:34;102260.19;;;4.70;76.58
68075;BME280;54864;52.002;5.468;2023-02-16T00:56:37;102259.34;;;4.71;76.35
68075;BME280;54864;52.002;5.468;2023-02-16T00:57:41;102257.59;;;4.70;76.72
68075;BME280;54864;52.002;5.468;2023-02-16T00:58:44;102254.97;;;4.68;76.54
68075;BME280;54864;52.002;5.468;2023-02-16T00:59:46;102254.97;;;4.67;76.50
68075;BME280;54864;52.002;5.468;2023-02-16T01:00:50;102253.25;;;4.70;76.14
68075;BME280;54864;52.002;5.468;2023-02-16T01:01:52;102254.97;;;4.65;76.72
68075;BME280;54864;52.002;5.468;2023-02-16T01:02:55;102250.63;;;4.64;76.56
68075;BME280;54864;52.002;5.468;2023-02-16T01:03:58;102243.66;;;4.62;76.33
68075;BME280;54864;52.002;5.468;2023-02-16T01:05:01;102250.63;;;4.67;76.02
68075;BME280;54864;52.002;5.468;2023-02-16T01:06:02;102241.91;;;4.64;75.93
68075;BME280;54864;52.002;5.468;2023-02-16T01:07:22;102245.38;;;4.63;75.94
68075;BME280;54864;52.002;5.468;2023-02-16T01:08:41;102242.78;;;4.63;76.17
68075;BME280;54864;52.002;5.468;2023-02-16T01:10:00;102243.66;;;4.60;76.71
68075;BME280;54864;52.002;5.468;2023-02-16T01:11:17;102245.38;;;4.60;76.42
68075;BME280;54864;52.002;5.468;2023-02-16T01:12:20;102240.13;;;4.54;76.29
68075;BME280;54864;52.002;5.468;2023-02-16T01:13:22;102239.25;;;4.53;76.41
68075;BME280;54864;52.002;5.468;2023-02-16T01:14:24;102241.03;;;4.62;76.48
68075;BME280;54864;52.002;5.468;2023-02-16T01:15:25;102242.75;;;4.57;76.36
68075;BME280;54864;52.002;5.468;2023-02-16T01:16:34;102254.03;;;4.48;76.25
68075;BME280;54864;52.002;5.468;2023-02-16T01:17:36;102256.63;;;4.50;76.29
68075;BME280;54864;52.002;5.468;2023-02-16T01:18:37;102253.16;;;4.49;76.14
68075;BME280;54864;52.002;5.468;2023-02-16T01:19:38;102245.31;;;4.51;76.84
68075;BME280;54864;52.002;5.468;2023-02-16T01:20:40;102242.72;;;4.51;76.14
68075;BME280;54864;52.002;5.468;2023-02-16T01:21:40;102242.72;;;4.52;76.09
68075;BME280;54864;52.002;5.468;2023-02-16T01:22:42;102230.53;;;4.50;76.28
68075;BME280;54864;52.002;5.468;2023-02-16T01:23:43;102239.22;;;4.49;77.00
68075;BME280;54864;52.002;5.468;2023-02-16T01:24:45;102234.88;;;4.51;76.42
68075;BME280;54864;52.002;5.468;2023-02-16T01:25:46;102229.66;;;4.54;76.65
68075;BME280;54864;52.002;5.468;2023-02-16T01:26:49;102233.16;;;4.51;76.73
68075;BME280;54864;52.002;5.468;2023-02-16T01:27:50;102234.00;;;4.52;77.19
68075;BME280;54864;52.002;5.468;2023-02-16T01:28:52;102234.03;;;4.53;76.71
68075;BME280;54864;52.002;5.468;2023-02-16T01:29:53;102229.66;;;4.52;77.36
68075;BME280;54864;52.002;5.468;2023-02-16T01:30:54;102239.25;;;4.52;77.15
68075;BME280;54864;52.002;5.468;2023-02-16T01:31:55;102237.47;;;4.46;76.94
68075;BME280;54864;52.002;5.468;2023-02-16T01:32:57;102246.16;;;4.36;77.71
68075;BME280;54864;52.002;5.468;2023-02-16T01:33:57;102227.03;;;4.40;77.38
68075;BME280;54864;52.002;5.468;2023-02-16T01:34:59;102229.66;;;4.44;77.16
68075;BME280;54864;52.002;5.468;2023-02-16T01:36:00;102234.84;;;4.32;77.77
68075;BME280;54864;52.002;5.468;2023-02-16T01:37:02;102233.09;;;4.34;77.40
68075;BME280;54864;52.002;5.468;2023-02-16T01:38:03;102231.38;;;4.36;77.04
68075;BME280;54864;52.002;5.468;2023-02-16T01:39:05;102237.47;;;4.37;77.48
68075;BME280;54864;52.002;5.468;2023-02-16T01:40:16;102228.78;;;4.45;77.48
68075;BME280;54864;52.002;5.468;2023-02-16T01:41:25;102223.56;;;4.42;77.24
68075;BME280;54864;52.002;5.468;2023-02-16T01:42:35;102222.69;;;4.42;77.82
68075;BME280;54864;52.002;5.468;2023-02-16T01:43:45;102214.84;;;4.45;77.31
68075;BME280;54864;52.002;5.468;2023-02-16T01:44:48;102214.84;;;4.45;77.47
68075;BME280;54864;52.002;5.468;2023-02-16T01:45:56;102211.38;;;4.43;77.83
68075;BME280;54864;52.002;5.468;2023-02-16T01:47:03;102215.72;;;4.45;77.84
68075;BME280;54864;52.002;5.468;2023-02-16T01:48:19;102216.59;;;4.46;77.56
68075;BME280;54864;52.002;5.468;2023-02-16T01:49:21;102220.06;;;4.36;78.37
68075;BME280;54864;52.002;5.468;2023-02-16T01:50:25;102220.06;;;4.40;78.18
68075;BME280;54864;52.002;5.468;2023-02-16T01:51:27;102213.97;;;4.37;77.85
68075;BME280;54864;52.002;5.468;2023-02-16T01:52:33;102218.31;;;4.44;77.58
68075;BME280;54864;52.002;5.468;2023-02-16T01:53:39;102215.72;;;4.47;77.83
68075;BME280;54864;52.002;5.468;2023-02-16T01:54:46;102219.19;;;4.43;77.34
68075;BME280;54864;52.002;5.468;2023-02-16T01:55:54;102208.75;;;4.46;77.22
68075;BME280;54864;52.002;5.468;2023-02-16T01:56:59;102200.03;;;4.38;77.70
68075;BME280;54864;52.002;5.468;2023-02-16T01:58:06;102211.38;;;4.47;78.08
68075;BME280;54864;52.002;5.468;2023-02-16T01:59:17;102208.75;;;4.46;77.29
68075;BME280;54864;52.002;5.468;2023-02-16T02:00:26;102207.88;;;4.41;77.85
68075;BME280;54864;52.002;5.468;2023-02-16T02:01:36;102207.00;;;4.42;77.47
68075;BME280;54864;52.002;5.468;2023-02-16T02:02:38;102203.53;;;4.46;77.15
68075;BME280;54864;52.002;5.468;2023-02-16T02:03:41;102200.91;;;4.41;77.79
68075;BME280;54864;52.002;5.468;2023-02-16T02:05:16;102199.19;;;4.42;78.39
68075;BME280;54864;52.002;5.468;2023-02-16T02:06:34;102204.41;;;4.45;77.91
68075;BME280;54864;52.002;5.468;2023-02-16T02:07:39;102206.16;;;4.46;78.15
68075;BME280;54864;52.002;5.468;2023-02-16T02:08:48;102208.75;;;4.44;78.02
68075;BME280;54864;52.002;5.468;2023-02-16T02:09:58;102205.28;;;4.42;78.22
68075;BME280;54864;52.002;5.468;2023-02-16T02:11:06;102208.75;;;4.46;77.48
68075;BME280;54864;52.002;5.468;2023-02-16T02:12:15;102200.06;;;4.49;77.80
68075;BME280;54864;52.002;5.468;2023-02-16T02:13:28;102207.03;;;4.53;77.18
68075;BME280;54864;52.002;5.468;2023-02-16T02:14:35;102192.22;;;4.45;77.84
68075;BME280;54864;52.002;5.468;2023-02-16T02:15:37;102199.19;;;4.46;77.80
68075;BME280;54864;52.002;5.468;2023-02-16T02:16:38;102201.78;;;4.40;77.92
68075;BME280;54864;52.002;5.468;2023-02-16T02:17:40;102198.31;;;4.44;77.37
68075;BME280;54864;52.002;5.468;2023-02-16T02:18:40;102197.44;;;4.36;77.94
68075;BME280;54864;52.002;5.468;2023-02-16T02:19:49;102197.44;;;4.44;77.60
68075;BME280;54864;52.002;5.468;2023-02-16T02:21:08;102195.72;;;4.49;77.57
68075;BME280;54864;52.002;5.468;2023-02-16T02:22:53;102189.63;;;4.47;77.38
68075;BME280;54864;52.002;5.468;2023-02-16T02:24:39;102193.97;;;4.53;78.13
68075;BME280;54864;52.002;5.468;2023-02-16T02:27:30;102188.75;;;4.50;78.35
68075;BME280;54864;52.002;5.468;2023-02-16T02:28:41;102194.84;;;4.55;77.79
68075;BME280;54864;52.002;5.468;2023-02-16T02:30:18;102186.16;;;4.54;78.04
68075;BME280;54864;52.002;5.468;2023-02-16T02:31:28;102193.16;;;4.58;78.49
68075;BME280;54864;52.002;5.468;2023-02-16T02:32:47;102194.88;;;4.59;78.92
68075;BME280;54864;52.002;5.468;2023-02-16T02:33:55;102194.03;;;4.65;78.40
68075;BME280;54864;52.002;5.468;2023-02-16T02:35:06;102188.81;;;4.68;78.65
68075;BME280;54864;52.002;5.468;2023-02-16T02:36:21;102184.44;;;4.71;78.15
68075;BME280;54864;52.002;5.468;2023-02-16T02:37:35;102188.81;;;4.72;78.16
68075;BME280;54864;52.002;5.468;2023-02-16T02:38:49;102183.59;;;4.80;77.93
68075;BME280;54864;52.002;5.468;2023-02-16T02:40:01;102184.44;;;4.76;78.35
68075;BME280;54864;52.002;5.468;2023-02-16T02:41:09;102180.97;;;4.80;78.69
68075;BME280;54864;52.002;5.468;2023-02-16T02:42:17;102183.59;;;4.82;78.23
68075;BME280;54864;52.002;5.468;2023-02-16T02:43:22;102187.06;;;4.82;78.66
68075;BME280;54864;52.002;5.468;2023-02-16T02:44:26;102179.22;;;4.87;78.53
68075;BME280;54864;52.002;5.468;2023-02-16T02:45:31;102180.09;;;4.87;78.50
68075;BME280;54864;52.002;5.468;2023-02-16T02:46:35;102168.78;;;4.88;78.71
68075;BME280;54864;52.002;5.468;2023-02-16T02:47:38;102178.34;;;4.94;78.51
68075;BME280;54864;52.002;5.468;2023-02-16T02:48:40;102179.22;;;4.94;78.28
68075;BME280;54864;52.002;5.468;2023-02-16T02:49:48;102167.03;;;4.93;77.93
68075;BME280;54864;52.002;5.468;2023-02-16T02:50:54;102174.00;;;4.96;78.72
68075;BME280;54864;52.002;5.468;2023-02-16T02:52:15;102174.00;;;4.97;78.90
68075;BME280;54864;52.002;5.468;2023-02-16T02:53:16;102171.38;;;5.00;78.56
68075;BME280;54864;52.002;5.468;2023-02-16T02:54:19;102170.50;;;5.04;78.63
68075;BME280;54864;52.002;5.468;2023-02-16T02:55:42;102172.25;;;5.04;78.03
68075;BME280;54864;52.002;5.468;2023-02-16T02:57:06;102171.38;;;5.08;77.69
68075;BME280;54864;52.002;5.468;2023-02-16T02:58:28;102168.75;;;5.03;78.40
68075;BME280;54864;52.002;5.468;2023-02-16T02:59:52;102168.75;;;5.05;78.21
68075;BME280;54864;52.002;5.468;2023-02-16T03:01:16;102170.50;;;5.10;78.25
68075;BME280;54864;52.002;5.468;2023-02-16T03:02:20;102173.97;;;5.09;78.11
68075;BME280;54864;52.002;5.468;2023-02-16T03:03:24;102166.16;;;5.06;78.45
68075;BME280;54864;52.002;5.468;2023-02-16T03:04:30;102174.84;;;5.08;77.98
68075;BME280;54864;52.002;5.468;2023-02-16T03:05:34;102165.28;;;5.07;78.40
68075;BME280;54864;52.002;5.468;2023-02-16T03:06:39;102164.41;;;5.08;78.18
68075;BME280;54864;52.002;5.468;2023-02-16T03:07:41;102158.31;;;5.06;78.26
68075;BME280;54864;52.002;5.468;2023-02-16T03:08:52;102156.56;;;5.12;78.30
68075;BME280;54864;52.002;5.468;2023-02-16T03:09:54;102153.94;;;5.12;78.73
68075;BME280;54864;52.002;5.468;2023-02-16T03:11:21;102160.03;;;5.09;78.61
68075;BME280;54864;52.002;5.468;2023-02-16T03:12:41;102151.34;;;5.08;79.40
68075;BME280;54864;52.002;5.468;2023-02-16T03:13:52;102157.41;;;5.17;78.66
68075;BME280;54864;52.002;5.468;2023-02-16T03:14:56;102161.78;;;5.19;78.38
68075;BME280;54864;52.002;5.468;2023-02-16T03:16:02;102151.31;;;5.13;78.77
68075;BME280;54864;52.002;5.468;2023-02-16T03:17:07;102156.53;;;5.18;78.37
68075;BME280;54864;52.002;5.468;2023-02-16T03:18:31;102151.31;;;5.18;78.29
68075;BME280;54864;52.002;5.468;2023-02-16T03:19:54;102156.56;;;5.21;78.54
68075;BME280;54864;52.002;5.468;2023-02-16T03:21:14;102146.97;;;5.14;78.94
68075;BME280;54864;52.002;5.468;2023-02-16T03:22:35;102152.22;;;5.09;79.49
68075;BME280;54864;52.002;5.468;2023-02-16T03:23:55;102149.56;;;5.17;78.80
68075;BME280;54864;52.002;5.468;2023-02-16T03:25:15;102149.59;;;5.21;78.44
68075;BME280;54864;52.002;5.468;2023-02-16T03:26:35;102146.97;;;5.15;78.42
68075;BME280;54864;52.002;5.468;2023-02-16T03:27:57;102143.47;;;5.18;78.00
68075;BME280;54864;52.002;5.468;2023-02-16T03:29:20;102143.50;;;5.08;78.42
68075;BME280;54864;52.002;5.468;2023-02-16T03:30:23;102132.19;;;5.02;78.75
68075;BME280;54864;52.002;5.468;2023-02-16T03:31:29;102139.13;;;5.10;78.97
68075;BME280;54864;52.002;5.468;2023-02-16T03:32:31;102135.66;;;5.12;78.57
68075;BME280;54864;52.002;5.468;2023-02-16T03:33:33;102133.91;;;5.12;78.60
68075;BME280;54864;52.002;5.468;2023-02-16T03:34:36;102134.78;;;5.14;78.86
68075;BME280;54864;52.002;5.468;2023-02-16T03:35:37;102131.28;;;5.20;78.46
68075;BME280;54864;52.002;5.468;2023-02-16T03:36:41;102131.28;;;5.18;79.13
68075;BME280;54864;52.002;5.468;2023-02-16T03:37:43;102133.91;;;5.21;79.17
68075;BME280;54864;52.002;5.468;2023-02-16T03:38:45;102139.13;;;5.20;79.31
68075;BME280;54864;52.002;5.468;2023-02-16T03:39:47;102142.63;;;5.23;79.11
68075;BME280;54864;52.002;5.468;2023-02-16T03:41:06;102147.84;;;5.28;78.67
68075;BME280;54864;52.002;5.468;2023-02-16T03:42:08;102144.34;;;5.27;78.82
68075;BME280;54864;52.002;5.468;2023-02-16T03:43:08;102140.00;;;5.23;78.80
68075;BME280;54864;52.002;5.468;2023-02-16T03:44:10;102144.34;;;5.29;78.89
68075;BME280;54864;52.002;5.468;2023-02-16T03:45:12;102143.47;;;5.28;78.40
68075;BME280;54864;52.002;5.468;2023-02-16T03:46:14;102133.03;;;5.28;78.81
68075;BME280;54864;52.002;5.468;2023-02-16T03:47:15;102139.09;;;5.35;78.37
68075;BME280;54864;52.002;5.468;2023-02-16T03:50:09;102136.50;;;5.35;78.72
68075;BME280;54864;52.002;5.468;2023-02-16T03:51:10;102137.38;;;5.37;78.43
68075;BME280;54864;52.002;5.468;2023-02-16T03:52:11;102135.59;;;5.44;78.27
68075;BME280;54864;52.002;5.468;2023-02-16T03:53:13;102146.06;;;5.44;78.51
68075;BME280;54864;52.002;5.468;2023-02-16T03:54:15;102145.19;;;5.43;78.59
68075;BME280;54864;52.002;5.468;2023-02-16T03:55:15;102147.78;;;5.49;78.61
68075;BME280;54864;52.002;5.468;2023-02-16T03:56:17;102146.91;;;5.47;78.59
68075;BME280;54864;52.002;5.468;2023-02-16T03:57:18;102151.28;;;5.48;78.87
68075;BME280;54864;52.002;5.468;2023-02-16T03:58:21;102153.03;;;5.48;78.89
68075;BME280;54864;52.002;5.468;2023-02-16T03:59:22;102156.47;;;5.54;78.24
68075;BME280;54864;52.002;5.468;2023-02-16T04:00:25;102153.88;;;5.53;78.59
68075;BME280;54864;52.002;5.468;2023-02-16T04:01:26;102156.47;;;5.56;78.21
68075;BME280;54864;52.002;5.468;2023-02-16T04:02:28;102156.50;;;5.53;78.22
68075;BME280;54864;52.002;5.468;2023-02-16T04:03:29;102158.22;;;5.57;78.26
68075;BME280;54864;52.002;5.468;2023-02-16T04:04:31;102161.69;;;5.59;78.58
68075;BME280;54864;52.002;5.468;2023-02-16T04:05:32;102167.78;;;5.62;78.28
68075;BME280;54864;52.002;5.468;2023-02-16T04:06:33;102159.97;;;5.58;78.56
68075;BME280;54864;52.002;5.468;2023-02-16T04:07:34;102159.94;;;5.59;78.66
68075;BME280;54864;52.002;5.468;2023-02-16T04:08:36;102164.28;;;5.66;78.40
68075;BME280;54864;52.002;5.468;2023-02-16T04:09:36;102164.28;;;5.66;78.69
68075;BME280;54864;52.002;5.468;2023-02-16T04:10:38;102170.41;;;5.65;78.31
68075;BME280;54864;52.002;5.468;2023-02-16T04:11:39;102166.03;;;5.64;78.66
68075;BME280;54864;52.002;5.468;2023-02-16T04:12:58;102166.03;;;5.66;78.51
68075;BME280;54864;52.002;5.468;2023-02-16T04:13:59;102163.41;;;5.70;78.86
68075;BME280;54864;52.002;5.468;2023-02-16T04:15:00;102167.75;;;5.71;78.80
68075;BME280;54864;52.002;5.468;2023-02-16T04:16:03;102154.66;;;5.76;79.06
68075;BME280;54864;52.002;5.468;2023-02-16T04:17:04;102158.13;;;5.81;78.83
68075;BME280;54864;52.002;5.468;2023-02-16T04:18:05;102151.13;;;5.85;78.93
68075;BME280;54864;52.002;5.468;2023-02-16T04:19:07;102152.88;;;5.89;79.31
68075;BME280;54864;52.002;5.468;2023-02-16T04:20:11;102159.88;;;5.88;79.83
68075;BME280;54864;52.002;5.468;2023-02-16T04:21:13;102161.63;;;5.91;79.24
68075;BME280;54864;52.002;5.468;2023-02-16T04:22:13;102162.50;;;5.93;79.52
68075;BME280;54864;52.002;5.468;2023-02-16T04:23:15;102159.84;;;5.97;79.81
68075;BME280;54864;52.002;5.468;2023-02-16T04:24:16;102154.59;;;6.00;79.42
68075;BME280;54864;52.002;5.468;2023-02-16T04:25:18;102158.97;;;6.00;79.68
68075;BME280;54864;52.002;5.468;2023-02-16T04:26:19;102161.56;;;6.04;79.74
68075;BME280;54864;52.002;5.468;2023-02-16T04:27:21;102153.69;;;6.08;79.33
68075;BME280;54864;52.002;5.468;2023-02-16T04:28:22;102157.19;;;6.08;79.20
68075;BME280;54864;52.002;5.468;2023-02-16T04:29:23;102158.03;;;6.12;79.03
68075;BME280;54864;52.002;5.468;2023-02-16T04:30:26;102152.78;;;6.13;78.78
68075;BME280;54864;52.002;5.468;2023-02-16T04:31:29;102155.38;;;6.19;78.54
68075;BME280;54864;52.002;5.468;2023-02-16T04:32:30;102149.25;;;6.22;78.41
68075;BME280;54864;52.002;5.468;2023-02-16T04:33:32;102148.34;;;6.26;78.30
68075;BME280;54864;52.002;5.468;2023-02-16T04:34:33;102153.56;;;6.27;77.97
68075;BME280;54864;52.002;5.468;2023-02-16T04:35:34;102153.59;;;6.26;78.19
68075;BME280;54864;52.002;5.468;2023-02-16T04:36:35;102161.44;;;6.29;77.96
68075;BME280;54864;52.002;5.468;2023-02-16T04:37:37;102153.56;;;6.30;77.84
68075;BME280;54864;52.002;5.468;2023-02-16T04:38:37;102150.94;;;6.29;78.19
68075;BME280;54864;52.002;5.468;2023-02-16T04:39:39;102156.16;;;6.32;78.19
68075;BME280;54864;52.002;5.468;2023-02-16T04:40:40;102153.53;;;6.32;78.08
68075;BME280;54864;52.002;5.468;2023-02-16T04:41:42;102155.28;;;6.34;77.97
68075;BME280;54864;52.002;5.468;2023-02-16T04:42:43;102152.63;;;6.38;77.84
68075;BME280;54864;52.002;5.468;2023-02-16T04:43:45;102154.38;;;6.39;77.68
68075;BME280;54864;52.002;5.468;2023-02-16T04:44:46;102150.88;;;6.40;77.83
68075;BME280;54864;52.002;5.468;2023-02-16T04:45:47;102145.63;;;6.41;77.46
68075;BME280;54864;52.002;5.468;2023-02-16T04:46:50;102149.09;;;6.45;77.53
68075;BME280;54864;52.002;5.468;2023-02-16T04:47:51;102148.22;;;6.46;77.63
68075;BME280;54864;52.002;5.468;2023-02-16T04:48:52;102142.09;;;6.47;77.18
68075;BME280;54864;52.002;5.468;2023-02-16T04:49:54;102143.84;;;6.46;77.46
68075;BME280;54864;52.002;5.468;2023-02-16T04:50:55;102137.75;;;6.46;77.34
68075;BME280;54864;52.002;5.468;2023-02-16T04:51:57;102139.47;;;6.48;77.45
68075;BME280;54864;52.002;5.468;2023-02-16T04:52:57;102144.72;;;6.47;77.59
68075;BME280;54864;52.002;5.468;2023-02-16T04:53:59;102149.09;;;6.46;77.68
68075;BME280;54864;52.002;5.468;2023-02-16T04:55:00;102149.09;;;6.45;78.01
68075;BME280;54864;52.002;5.468;2023-02-16T04:56:02;102142.09;;;6.45;77.63
68075;BME280;54864;52.002;5.468;2023-02-16T04:57:03;102144.69;;;6.50;77.59
68075;BME280;54864;52.002;5.468;2023-02-16T04:58:05;102144.69;;;6.50;77.12
68075;BME280;54864;52.002;5.468;2023-02-16T04:59:05;102143.81;;;6.55;77.36
68075;BME280;54864;52.002;5.468;2023-02-16T05:00:09;102146.41;;;6.57;77.51
68075;BME280;54864;52.002;5.468;2023-02-16T05:01:18;102146.38;;;6.63;76.63
68075;BME280;54864;52.002;5.468;2023-02-16T05:02:21;102146.38;;;6.61;76.76
68075;BME280;54864;52.002;5.468;2023-02-16T05:03:22;102149.00;;;6.61;76.89
68075;BME280;54864;52.002;5.468;2023-02-16T05:04:24;102150.72;;;6.64;76.61
68075;BME280;54864;52.002;5.468;2023-02-16T05:05:25;102145.53;;;6.59;76.95
68075;BME280;54864;52.002;5.468;2023-02-16T05:06:27;102144.66;;;6.57;76.85
68075;BME280;54864;52.002;5.468;2023-02-16T05:07:27;102143.78;;;6.58;76.87
68075;BME280;54864;52.002;5.468;2023-02-16T05:08:29;102146.38;;;6.63;76.70
68075;BME280;54864;52.002;5.468;2023-02-16T05:09:30;102147.25;;;6.63;76.98
68075;BME280;54864;52.002;5.468;2023-02-16T05:10:32;102140.22;;;6.65;76.94
68075;BME280;54864;52.002;5.468;2023-02-16T05:11:34;102134.13;;;6.65;76.91
68075;BME280;54864;52.002;5.468;2023-02-16T05:12:53;102138.47;;;6.67;76.81
68075;BME280;54864;52.002;5.468;2023-02-16T05:14:16;102140.22;;;6.67;77.26
68075;BME280;54864;52.002;5.468;2023-02-16T05:15:36;102131.50;;;6.65;77.13
68075;BME280;54864;52.002;5.468;2023-02-16T05:16:38;102137.56;;;6.72;76.74
68075;BME280;54864;52.002;5.468;2023-02-16T05:17:40;102139.34;;;6.68;76.40
68075;BME280;54864;52.002;5.468;2023-02-16T05:18:42;102138.47;;;6.66;76.87
68075;BME280;54864;52.002;5.468;2023-02-16T05:19:44;102129.69;;;6.72;76.41
68075;BME280;54864;52.002;5.468;2023-02-16T05:20:46;102137.56;;;6.73;76.53
68075;BME280;54864;52.002;5.468;2023-02-16T05:22:06;102134.03;;;6.74;76.75
68075;BME280;54864;52.002;5.468;2023-02-16T05:23:08;102134.03;;;6.74;76.63
68075;BME280;54864;52.002;5.468;2023-02-16T05:24:10;102140.16;;;6.76;76.52
68075;BME280;54864;52.002;5.468;2023-02-16T05:25:12;102141.06;;;6.71;77.04
68075;BME280;54864;52.002;5.468;2023-02-16T05:26:12;102131.44;;;6.73;77.03
68075;BME280;54864;52.002;5.468;2023-02-16T05:27:17;102120.97;;;6.73;76.27
68075;BME280;54864;52.002;5.468;2023-02-16T05:28:20;102132.34;;;6.68;76.83
68075;BME280;54864;52.002;5.468;2023-02-16T05:29:20;102128.84;;;6.68;77.14
68075;BME280;54864;52.002;5.468;2023-02-16T05:30:22;102118.44;;;6.62;77.04
68075;BME280;54864;52.002;5.468;2023-02-16T05:31:25;102121.00;;;6.68;77.20
68075;BME280;54864;52.002;5.468;2023-02-16T05:32:26;102121.84;;;6.70;77.13
68075;BME280;54864;52.002;5.468;2023-02-16T05:33:29;102134.06;;;6.71;76.87
68075;BME280;54864;52.002;5.468;2023-02-16T05:34:29;102133.22;;;6.71;77.42
68075;BME280;54864;52.002;5.468;2023-02-16T05:35:32;102134.91;;;6.76;76.53
68075;BME280;54864;52.002;5.468;2023-02-16T05:36:33;102128.75;;;6.79;77.04
68075;BME280;54864;52.002;5.468;2023-02-16T05:37:34;102133.13;;;6.81;76.53
68075;BME280;54864;52.002;5.468;2023-02-16T05:38:35;102140.06;;;6.84;76.35
68075;BME280;54864;52.002;5.468;2023-02-16T05:39:37;102123.53;;;6.79;76.22
68075;BME280;54864;52.002;5.468;2023-02-16T05:40:37;102126.13;;;6.80;76.51
68075;BME280;54864;52.002;5.468;2023-02-16T05:41:39;102128.72;;;6.83;76.06
68075;BME280;54864;52.002;5.468;2023-02-16T05:42:40;102131.38;;;6.80;76.21
68075;BME280;54864;52.002;5.468;2023-02-16T05:43:42;102122.69;;;6.75;76.65
68075;BME280;54864;52.002;5.468;2023-02-16T05:44:42;102119.16;;;6.79;76.43
68075;BME280;54864;52.002;5.468;2023-02-16T05:45:44;102119.13;;;6.81;76.79
68075;BME280;54864;52.002;5.468;2023-02-16T05:46:45;102123.53;;;6.79;76.60
68075;BME280;54864;52.002;5.468;2023-02-16T05:47:46;102119.13;;;6.81;76.60
68075;BME280;54864;52.002;5.468;2023-02-16T05:48:49;102132.28;;;6.78;76.67
68075;BME280;54864;52.002;5.468;2023-02-16T05:49:51;102117.44;;;6.75;76.54